Tracer — PHAC — position and weather

sailwx.info

Track history (hours):
 
Tides and Currents Weather Stations Pressure Air Temp Water Temp Dewpoint Dewpoint Depression Visibility Wind Speed Wind Dir Waves Ship Positions

Tracer

Last reported at 2018-Apr-24 21:17 UTC. Time now 2018-Apr-26 18:52 UTC.
Position N 44°46' E 012°57'.

Length 101 m; beam 20 m.

Type: Cargo ship. MMSI: 245949000.

Date/timePositionNaut miles runAvg speedWind from/ knotsBaromVisibWave heightAir tempDewpointWater temp
2018-Apr-24 21:17N 44°46' E 012°57'3 9.7
2018-Apr-24 20:56N 44°49' E 012°55'4 9.7
2018-Apr-24 20:29N 44°53' E 012°53'8 8.4
2018-Apr-24 19:31N 45°00' E 012°48'0 7.3
2018-Apr-24 19:30N 45°00' E 012°48'3 6.1
2018-Apr-24 19:00N 45°03' E 012°46'4 7.8
2018-Apr-24 18:30N 45°06' E 012°43'4 7.9
2018-Apr-24 17:58N 45°09' E 012°38'4 7.6
2018-Apr-24 17:30N 45°10' E 012°34'3 6.2
2018-Apr-24 17:00N 45°12' E 012°30'5 7.9
2018-Apr-24 16:22N 45°13' E 012°23'3 7.7
2018-Apr-24 15:58N 45°14' E 012°19'2 5.0
2018-Apr-24 15:30N 45°13' E 012°16'0 0.1
2018-Apr-24 14:43N 45°13' E 012°16'0 0.0
2018-Apr-24 14:19N 45°13' E 012°16'0 0.0
2018-Apr-24 13:58N 45°13' E 012°16'0 0.0
2018-Apr-24 13:28N 45°13' E 012°16'0 0.0
2018-Apr-24 12:55N 45°13' E 012°16'0 0.0
2018-Apr-24 12:28N 45°13' E 012°16'0 0.0
2018-Apr-24 11:28N 45°13' E 012°16'0 0.0
2018-Apr-24 09:58N 45°13' E 012°16'0 0.0
2018-Apr-24 02:54N 45°13' E 012°16'0 0.0
2018-Apr-24 02:27N 45°13' E 012°16'0 0.0
2018-Apr-24 01:51N 45°13' E 012°16'0 0.0
2018-Apr-23 20:33N 45°13' E 012°16'0 0.0
2018-Apr-23 18:57N 45°13' E 012°16'0 0.0
2018-Apr-23 18:30N 45°13' E 012°16'0 0.0
2018-Apr-23 17:57N 45°13' E 012°16'0 0.0
2018-Apr-23 17:27N 45°13' E 012°16'0 0.0
2018-Apr-23 14:42N 45°13' E 012°16'0 0.0
2018-Apr-23 14:30N 45°13' E 012°16'0 0.0
2018-Apr-23 14:00N 45°13' E 012°16'0 0.0
2018-Apr-23 11:06N 45°13' E 012°16'0 0.1
2018-Apr-23 11:00N 45°13' E 012°16'0 0.0
2018-Apr-23 10:15N 45°13' E 012°16'0 0.0
2018-Apr-23 02:45N 45°13' E 012°16'0 0.0
2018-Apr-23 01:36N 45°13' E 012°16'0 0.0
2018-Apr-23 01:24N 45°13' E 012°16'0 0.0
2018-Apr-23 01:00N 45°13' E 012°16'0 0.0
2018-Apr-23 00:27N 45°13' E 012°16'0 0.0
2018-Apr-23 00:00N 45°13' E 012°16'0 0.0
2018-Apr-22 23:15N 45°13' E 012°16'0 0.0
2018-Apr-22 23:00N 45°13' E 012°16'0 0.0
2018-Apr-22 22:30N 45°13' E 012°16'0 0.0
2018-Apr-22 21:57N 45°13' E 012°16'0 0.0
2018-Apr-22 21:18N 45°13' E 012°16'0 0.0
2018-Apr-22 21:00N 45°13' E 012°16'0 0.0
2018-Apr-22 20:30N 45°13' E 012°16'0 0.0
2018-Apr-22 19:57N 45°13' E 012°16'0 0.0
2018-Apr-22 19:30N 45°13' E 012°16'0 0.0
2018-Apr-22 18:54N 45°13' E 012°16'0 0.0
2018-Apr-22 18:06N 45°13' E 012°16'0 0.0
2018-Apr-22 17:54N 45°13' E 012°16'0 0.0
2018-Apr-22 17:26N 45°13' E 012°16'0 0.0
2018-Apr-22 16:59N 45°13' E 012°16'0 0.0
2018-Apr-22 13:47N 45°13' E 012°16'0 0.0
2018-Apr-22 07:56N 45°13' E 012°16'0 0.0
2018-Apr-22 07:30N 45°13' E 012°16'3 3.8
2018-Apr-22 06:41N 45°14' E 012°20'411.5
2018-Apr-22 06:22N 45°14' E 012°25'512.5
2018-Apr-22 05:58N 45°17' E 012°31'612.5
2018-Apr-22 05:31N 45°14' E 012°38'713.1
2018-Apr-22 05:00N 45°10' E 012°45'612.7
2018-Apr-22 04:30N 45°04' E 012°50'713.0
2018-Apr-22 04:00N 44°59' E 012°54'713.3
2018-Apr-22 03:31N 44°53' E 012°58'713.3
2018-Apr-22 03:00N 44°46' E 013°02'613.0
2018-Apr-22 02:30N 44°40' E 013°04'713.1
2018-Apr-22 02:00N 44°34' E 013°07'712.9
2018-Apr-22 01:30N 44°28' E 013°10'612.8
2018-Apr-22 01:00N 44°22' E 013°13'612.3
2018-Apr-22 00:30N 44°16' E 013°17'612.7
2018-Apr-22 00:00N 44°12' E 013°24'2412.8
2018-Apr-21 22:09N 43°58' E 013°50'212.9
2018-Apr-21 22:00N 43°57' E 013°52'712.7
2018-Apr-21 21:26N 43°52' E 013°60'2312.5
2018-Apr-21 19:38N 43°34' E 014°19'  
Track history (hours):
 
Tides and Currents Weather Stations Pressure Air Temp Water Temp Dewpoint Dewpoint Depression Visibility Wind Speed Wind Dir Waves Ship Positions

Tracer

Last reported at 2018-Apr-24 21:17 UTC. Time now 2018-Apr-26 18:52 UTC.
Position N 44°46' E 012°57'.

Length 101 m; beam 20 m.

Type: Cargo ship. MMSI: 245949000.

Date/timePositionNaut miles runAvg speedWind from/ knotsBaromVisibWave heightAir tempDewpointWater temp
2018-Apr-24 21:17N 44°46' E 012°57'3 9.7
2018-Apr-24 20:56N 44°49' E 012°55'4 9.7
2018-Apr-24 20:29N 44°53' E 012°53'8 8.4
2018-Apr-24 19:31N 45°00' E 012°48'0 7.3
2018-Apr-24 19:30N 45°00' E 012°48'3 6.1
2018-Apr-24 19:00N 45°03' E 012°46'4 7.8
2018-Apr-24 18:30N 45°06' E 012°43'4 7.9
2018-Apr-24 17:58N 45°09' E 012°38'4 7.6
2018-Apr-24 17:30N 45°10' E 012°34'3 6.2
2018-Apr-24 17:00N 45°12' E 012°30'5 7.9
2018-Apr-24 16:22N 45°13' E 012°23'3 7.7
2018-Apr-24 15:58N 45°14' E 012°19'2 5.0
2018-Apr-24 15:30N 45°13' E 012°16'0 0.1
2018-Apr-24 14:43N 45°13' E 012°16'0 0.0
2018-Apr-24 14:19N 45°13' E 012°16'0 0.0
2018-Apr-24 13:58N 45°13' E 012°16'0 0.0
2018-Apr-24 13:28N 45°13' E 012°16'0 0.0
2018-Apr-24 12:55N 45°13' E 012°16'0 0.0
2018-Apr-24 12:28N 45°13' E 012°16'0 0.0
2018-Apr-24 11:28N 45°13' E 012°16'0 0.0
2018-Apr-24 09:58N 45°13' E 012°16'0 0.0
2018-Apr-24 02:54N 45°13' E 012°16'0 0.0
2018-Apr-24 02:27N 45°13' E 012°16'0 0.0
2018-Apr-24 01:51N 45°13' E 012°16'0 0.0
2018-Apr-23 20:33N 45°13' E 012°16'0 0.0
2018-Apr-23 18:57N 45°13' E 012°16'0 0.0
2018-Apr-23 18:30N 45°13' E 012°16'0 0.0
2018-Apr-23 17:57N 45°13' E 012°16'0 0.0
2018-Apr-23 17:27N 45°13' E 012°16'0 0.0
2018-Apr-23 14:42N 45°13' E 012°16'0 0.0
2018-Apr-23 14:30N 45°13' E 012°16'0 0.0
2018-Apr-23 14:00N 45°13' E 012°16'0 0.0
2018-Apr-23 11:06N 45°13' E 012°16'0 0.1
2018-Apr-23 11:00N 45°13' E 012°16'0 0.0
2018-Apr-23 10:15N 45°13' E 012°16'0 0.0
2018-Apr-23 02:45N 45°13' E 012°16'0 0.0
2018-Apr-23 01:36N 45°13' E 012°16'0 0.0
2018-Apr-23 01:24N 45°13' E 012°16'0 0.0
2018-Apr-23 01:00N 45°13' E 012°16'0 0.0
2018-Apr-23 00:27N 45°13' E 012°16'0 0.0
2018-Apr-23 00:00N 45°13' E 012°16'0 0.0
2018-Apr-22 23:15N 45°13' E 012°16'0 0.0
2018-Apr-22 23:00N 45°13' E 012°16'0 0.0
2018-Apr-22 22:30N 45°13' E 012°16'0 0.0
2018-Apr-22 21:57N 45°13' E 012°16'0 0.0
2018-Apr-22 21:18N 45°13' E 012°16'0 0.0
2018-Apr-22 21:00N 45°13' E 012°16'0 0.0
2018-Apr-22 20:30N 45°13' E 012°16'0 0.0
2018-Apr-22 19:57N 45°13' E 012°16'0 0.0
2018-Apr-22 19:30N 45°13' E 012°16'0 0.0
2018-Apr-22 18:54N 45°13' E 012°16'0 0.0
2018-Apr-22 18:06N 45°13' E 012°16'0 0.0
2018-Apr-22 17:54N 45°13' E 012°16'0 0.0
2018-Apr-22 17:26N 45°13' E 012°16'0 0.0
2018-Apr-22 16:59N 45°13' E 012°16'0 0.0
2018-Apr-22 13:47N 45°13' E 012°16'0 0.0
2018-Apr-22 07:56N 45°13' E 012°16'0 0.0
2018-Apr-22 07:30N 45°13' E 012°16'3 3.8
2018-Apr-22 06:41N 45°14' E 012°20'411.5
2018-Apr-22 06:22N 45°14' E 012°25'512.5
2018-Apr-22 05:58N 45°17' E 012°31'612.5
2018-Apr-22 05:31N 45°14' E 012°38'713.1
2018-Apr-22 05:00N 45°10' E 012°45'612.7
2018-Apr-22 04:30N 45°04' E 012°50'713.0
2018-Apr-22 04:00N 44°59' E 012°54'713.3
2018-Apr-22 03:31N 44°53' E 012°58'713.3
2018-Apr-22 03:00N 44°46' E 013°02'613.0
2018-Apr-22 02:30N 44°40' E 013°04'713.1
2018-Apr-22 02:00N 44°34' E 013°07'712.9
2018-Apr-22 01:30N 44°28' E 013°10'612.8
2018-Apr-22 01:00N 44°22' E 013°13'612.3
2018-Apr-22 00:30N 44°16' E 013°17'612.7
2018-Apr-22 00:00N 44°12' E 013°24'2412.8
2018-Apr-21 22:09N 43°58' E 013°50'212.9
2018-Apr-21 22:00N 43°57' E 013°52'712.7
2018-Apr-21 21:26N 43°52' E 013°60'2312.5
2018-Apr-21 19:38N 43°34' E 014°19'  

Dump ship's entire track history